createdAt,value
2023-01-25T00:00:00.801Z,103234.56
2023-01-25T00:02:30.690Z,103221.94
2023-01-25T00:05:00.434Z,103225.78
2023-01-25T00:07:30.154Z,103227.94
2023-01-25T00:09:59.824Z,103218.16
2023-01-25T00:12:32.265Z,103197.00
2023-01-25T00:15:01.910Z,103216.38
2023-01-25T00:17:31.597Z,103212.69
2023-01-25T00:20:01.237Z,103204.00
2023-01-25T00:22:30.919Z,103184.28
2023-01-25T00:25:00.566Z,103178.22
2023-01-25T00:27:32.832Z,103199.69
2023-01-25T00:30:02.516Z,103185.34
2023-01-25T00:32:50.807Z,103189.44
2023-01-25T00:35:20.535Z,103186.94
2023-01-25T00:37:52.502Z,103173.31
2023-01-25T00:40:22.341Z,103179.06
2023-01-25T00:42:54.812Z,103129.63
2023-01-25T00:45:24.450Z,103177.84
2023-01-25T00:47:57.326Z,103157.31
2023-01-25T00:50:27.705Z,103162.75
2023-01-25T00:52:57.389Z,103177.84
2023-01-25T00:55:27.092Z,103173.09
2023-01-25T00:57:59.648Z,103179.28
2023-01-25T01:00:29.393Z,103175.41
2023-01-25T01:03:00.382Z,103163.75
2023-01-25T01:05:30.351Z,103169.34
2023-01-25T01:07:59.971Z,103173.50
2023-01-25T01:10:29.638Z,103169.63
2023-01-25T01:13:01.892Z,103121.31
2023-01-25T01:15:31.508Z,103150.72
2023-01-25T01:18:01.191Z,103173.22
2023-01-25T01:20:31.052Z,103161.56
2023-01-25T01:23:00.681Z,103164.13
2023-01-25T01:25:30.281Z,103168.22
2023-01-25T01:28:02.470Z,103169.66
2023-01-25T01:30:32.140Z,103167.03
2023-01-25T01:33:01.798Z,103151.13
2023-01-25T01:35:32.586Z,103157.91
2023-01-25T01:38:02.420Z,103170.00
2023-01-25T01:40:32.088Z,103161.81
2023-01-25T01:43:06.785Z,103162.84
2023-01-25T01:45:56.568Z,103164.34
2023-01-25T01:48:37.382Z,103161.97
2023-01-25T01:51:19.556Z,103157.06
2023-01-25T01:53:53.696Z,103160.16
2023-01-25T01:56:37.210Z,103156.69
2023-01-25T01:59:10.777Z,103142.19
2023-01-25T02:01:40.845Z,103142.50
2023-01-25T02:04:12.078Z,103135.38
2023-01-25T02:06:48.233Z,103147.34
2023-01-25T02:09:22.179Z,103141.56
2023-01-25T02:11:53.643Z,103138.94
2023-01-25T02:14:26.061Z,103126.66
2023-01-25T02:16:55.736Z,103136.44
2023-01-25T02:19:48.017Z,103129.19
2023-01-25T02:22:23.033Z,103134.06
2023-01-25T02:25:06.115Z,103130.31
2023-01-25T02:27:40.840Z,103126.66
2023-01-25T02:30:12.883Z,103130.19
2023-01-25T02:32:42.535Z,103115.06
2023-01-25T02:35:22.124Z,103120.66
2023-01-25T02:37:53.252Z,103120.63
2023-01-25T02:40:25.495Z,103132.34
2023-01-25T02:42:55.160Z,103129.75
2023-01-25T02:45:30.249Z,103121.28
2023-01-25T02:48:00.377Z,103122.44
2023-01-25T02:50:30.206Z,103087.16
2023-01-25T02:52:59.904Z,103105.13
2023-01-25T02:55:32.156Z,103091.19
2023-01-25T02:58:01.832Z,103089.81
2023-01-25T03:00:31.735Z,103097.97
2023-01-25T03:03:01.429Z,103081.47
2023-01-25T03:05:31.152Z,103084.16
2023-01-25T03:08:01.419Z,103083.00
2023-01-25T03:10:33.774Z,103077.41
2023-01-25T03:13:03.957Z,103077.88
2023-01-25T03:15:33.563Z,103061.47
2023-01-25T03:18:04.483Z,103077.38
2023-01-25T03:20:34.282Z,103069.16
2023-01-25T03:23:03.979Z,103076.28
2023-01-25T03:25:37.264Z,103016.25
2023-01-25T03:28:15.180Z,103052.06
2023-01-25T03:30:44.956Z,103045.25
2023-01-25T03:33:14.735Z,103022.50
2023-01-25T03:35:44.902Z,103051.91
2023-01-25T03:38:14.722Z,103040.84
2023-01-25T03:40:46.983Z,103044.25
2023-01-25T03:43:16.764Z,103041.72
2023-01-25T03:45:55.741Z,103030.69
2023-01-25T03:48:27.327Z,103040.44
2023-01-25T03:50:59.336Z,102988.94
2023-01-25T03:53:32.892Z,102984.97
2023-01-25T03:56:19.887Z,103034.56
2023-01-25T03:58:58.844Z,103033.31
2023-01-25T04:01:29.589Z,103027.00
2023-01-25T04:03:59.265Z,103030.22
2023-01-25T04:06:29.079Z,103009.22
2023-01-25T04:08:59.091Z,103024.06
2023-01-25T04:11:34.449Z,103023.91
2023-01-25T04:14:04.205Z,103006.91
2023-01-25T04:16:41.508Z,102995.53
2023-01-25T04:19:32.462Z,103009.50
2023-01-25T04:22:03.951Z,103003.03
2023-01-25T04:24:39.925Z,103015.09
2023-01-25T04:27:13.229Z,103013.31
2023-01-25T04:29:56.547Z,103018.06
2023-01-25T04:32:28.611Z,103018.63
2023-01-25T04:34:59.253Z,103004.72
2023-01-25T04:37:31.190Z,102998.06
2023-01-25T04:40:02.398Z,103009.56
2023-01-25T04:42:39.223Z,102994.31
2023-01-25T04:45:10.440Z,102983.41
2023-01-25T04:47:41.368Z,102995.19
2023-01-25T04:50:13.627Z,102981.91
2023-01-25T04:52:43.263Z,102988.50
2023-01-25T04:55:13.099Z,102986.13
2023-01-25T04:57:48.422Z,102970.59
2023-01-25T05:00:19.181Z,102984.63
2023-01-25T05:02:49.546Z,102975.97
2023-01-25T05:05:19.510Z,102994.84
2023-01-25T05:07:50.602Z,102996.63
2023-01-25T05:10:20.390Z,102995.31
2023-01-25T05:13:24.724Z,102986.78
2023-01-25T05:16:02.433Z,102970.06
2023-01-25T05:18:47.084Z,102987.41
2023-01-25T05:21:33.662Z,102976.59
2023-01-25T05:24:03.485Z,102981.44
2023-01-25T05:26:47.623Z,102986.00
2023-01-25T05:29:19.871Z,102979.88
2023-01-25T05:31:55.912Z,102987.84
2023-01-25T05:34:26.126Z,102983.88
2023-01-25T05:36:56.379Z,102976.50
2023-01-25T05:39:26.514Z,102972.00
2023-01-25T05:41:57.114Z,102977.75
2023-01-25T05:44:29.592Z,102978.28
2023-01-25T05:46:59.281Z,102980.41
2023-01-25T05:49:29.365Z,102971.22
2023-01-25T05:51:59.310Z,102966.44
2023-01-25T05:54:29.551Z,102979.47
2023-01-25T05:57:05.417Z,102967.25
2023-01-25T05:59:39.407Z,102962.78
2023-01-25T06:02:11.933Z,102941.88
2023-01-25T06:04:42.269Z,102917.19
2023-01-25T06:07:12.974Z,102949.28
2023-01-25T06:09:43.533Z,102963.56
2023-01-25T06:12:13.433Z,102936.94
2023-01-25T06:14:47.371Z,102954.94
2023-01-25T06:17:17.218Z,102961.94
2023-01-25T06:20:15.263Z,102909.06
2023-01-25T06:23:01.225Z,102960.59
2023-01-25T06:25:30.869Z,102953.63
2023-01-25T06:28:00.694Z,102953.72
2023-01-25T06:30:32.991Z,102956.50
2023-01-25T06:33:03.511Z,102926.41
2023-01-25T06:35:34.307Z,102865.84
2023-01-25T06:38:04.379Z,102948.59
2023-01-25T06:40:34.028Z,102963.72
2023-01-25T06:43:09.549Z,102906.47
2023-01-25T06:45:41.780Z,102959.66
2023-01-25T06:48:12.890Z,102966.00
2023-01-25T06:50:43.255Z,102956.84
2023-01-25T06:53:12.887Z,102958.94
2023-01-25T06:55:42.504Z,102959.00
2023-01-25T06:58:12.184Z,102962.09
2023-01-25T07:00:44.405Z,102955.53
2023-01-25T07:03:14.080Z,102964.94
2023-01-25T07:05:43.729Z,102960.38
2023-01-25T07:08:13.572Z,102934.34
2023-01-25T07:10:43.254Z,102943.66
2023-01-25T07:13:12.866Z,102934.25
2023-01-25T07:15:45.111Z,102941.56
2023-01-25T07:18:16.562Z,102953.75
2023-01-25T07:20:46.491Z,102951.38
2023-01-25T07:23:16.229Z,102940.34
2023-01-25T07:25:49.054Z,102949.78
2023-01-25T07:28:19.864Z,102948.84
2023-01-25T07:30:52.262Z,102954.72
2023-01-25T07:33:21.920Z,102950.72
2023-01-25T07:35:52.106Z,102958.78
2023-01-25T07:38:21.722Z,102944.22
2023-01-25T07:40:54.832Z,102933.97
2023-01-25T07:43:24.584Z,102939.41
2023-01-25T07:46:03.577Z,102943.63
2023-01-25T07:48:33.463Z,102936.69
2023-01-25T07:51:22.728Z,102929.16
2023-01-25T07:53:54.197Z,102936.34
2023-01-25T07:56:25.861Z,102919.31
2023-01-25T07:58:56.844Z,102936.97
2023-01-25T08:01:32.217Z,102934.00
2023-01-25T08:04:02.852Z,102940.78
2023-01-25T08:06:35.904Z,102930.97
2023-01-25T08:09:09.158Z,102926.41
2023-01-25T08:11:38.819Z,102918.38
2023-01-25T08:14:09.176Z,102920.94
2023-01-25T08:16:41.473Z,102922.38
2023-01-25T08:19:12.973Z,102930.34
2023-01-25T08:21:42.732Z,102924.50
2023-01-25T08:24:13.043Z,102927.78
2023-01-25T08:26:43.663Z,102943.97
2023-01-25T08:29:14.605Z,102890.47
2023-01-25T08:31:46.921Z,102913.09
2023-01-25T08:34:17.164Z,102914.34
2023-01-25T08:36:46.838Z,102904.59
2023-01-25T08:39:17.826Z,102908.44
2023-01-25T08:41:47.494Z,102907.69
2023-01-25T08:44:17.112Z,102903.53
2023-01-25T08:46:49.569Z,102867.34
2023-01-25T08:49:19.426Z,102901.44
2023-01-25T08:51:50.373Z,102906.88
2023-01-25T08:54:20.021Z,102895.50
2023-01-25T08:56:49.940Z,102888.69
2023-01-25T08:59:19.606Z,102883.09
2023-01-25T09:01:52.031Z,102889.00
2023-01-25T09:04:21.684Z,102887.47
2023-01-25T09:06:51.351Z,102845.13
2023-01-25T09:09:22.520Z,102891.41
2023-01-25T09:11:55.090Z,102889.91
2023-01-25T09:14:25.078Z,102871.88
2023-01-25T09:16:57.289Z,102860.19
2023-01-25T09:19:26.915Z,102793.69
2023-01-25T09:21:56.525Z,102867.38
2023-01-25T09:24:26.216Z,102867.28
2023-01-25T09:26:59.787Z,102859.00
2023-01-25T09:29:30.043Z,102834.66
2023-01-25T09:32:02.627Z,102853.66
2023-01-25T09:34:34.825Z,102856.38
2023-01-25T09:37:04.445Z,102846.16
2023-01-25T09:39:34.099Z,102860.94
2023-01-25T09:42:32.833Z,102854.13
2023-01-25T09:45:14.796Z,102830.50
2023-01-25T09:47:53.752Z,102815.34
2023-01-25T09:50:34.839Z,102837.66
2023-01-25T09:53:19.193Z,102838.41
2023-01-25T09:55:54.072Z,102831.75
2023-01-25T09:58:29.108Z,102838.66
2023-01-25T10:01:14.028Z,102829.63
2023-01-25T10:03:53.105Z,102822.53
2023-01-25T10:06:26.359Z,102797.19
2023-01-25T10:09:03.369Z,102834.09
2023-01-25T10:11:34.671Z,102831.91
2023-01-25T10:14:04.486Z,102818.28
2023-01-25T10:16:41.802Z,102815.13
2023-01-25T10:19:23.173Z,102799.47
2023-01-25T10:21:59.393Z,102821.41
2023-01-25T10:24:40.224Z,102758.41
2023-01-25T10:27:22.017Z,102797.94
2023-01-25T10:29:53.555Z,102793.91
2023-01-25T10:32:31.964Z,102799.22
2023-01-25T10:35:29.221Z,102795.84
2023-01-25T10:38:07.858Z,102741.28
2023-01-25T10:40:45.729Z,102804.06
2023-01-25T10:43:19.815Z,102770.44
2023-01-25T10:45:50.737Z,102762.78
2023-01-25T10:48:23.979Z,102737.81
2023-01-25T10:50:57.940Z,102772.00
2023-01-25T10:53:36.100Z,102756.59
2023-01-25T10:56:21.262Z,102765.19
2023-01-25T10:58:54.447Z,102752.38
2023-01-25T11:01:30.829Z,102757.56
2023-01-25T11:04:02.350Z,102748.13
2023-01-25T11:06:37.656Z,102751.59
2023-01-25T11:09:33.976Z,102747.63
2023-01-25T11:12:05.323Z,102744.94
2023-01-25T11:14:36.228Z,102740.09
2023-01-25T11:17:08.399Z,102738.97
2023-01-25T11:19:40.010Z,102737.31
2023-01-25T11:22:28.790Z,102722.34
2023-01-25T11:24:58.427Z,102718.25
2023-01-25T11:27:29.418Z,102713.91
2023-01-25T11:30:14.414Z,102710.38
2023-01-25T11:32:44.465Z,102698.19
2023-01-25T11:35:18.727Z,102647.22
2023-01-25T11:38:08.908Z,102679.63
2023-01-25T11:40:46.200Z,102690.91
2023-01-25T11:43:28.277Z,102691.94
2023-01-25T11:46:20.831Z,102664.09
2023-01-25T11:49:16.842Z,102653.50
2023-01-25T11:51:55.339Z,102663.34
2023-01-25T11:54:43.302Z,102654.41
2023-01-25T11:57:31.526Z,102646.13
2023-01-25T12:00:13.284Z,102634.03
2023-01-25T12:03:07.442Z,102585.44
2023-01-25T12:05:51.033Z,102630.06
2023-01-25T12:08:44.937Z,102610.06
2023-01-25T12:11:26.614Z,102620.69
2023-01-25T12:14:06.670Z,102621.56
2023-01-25T12:16:50.438Z,102607.69
2023-01-25T12:19:36.074Z,102576.16
2023-01-25T12:22:17.317Z,102584.72
2023-01-25T12:24:58.680Z,102572.56
2023-01-25T12:27:46.117Z,102572.31
2023-01-25T12:30:23.511Z,102536.91
2023-01-25T12:33:08.959Z,102558.31
2023-01-25T12:35:48.188Z,102558.84
2023-01-25T12:38:22.822Z,102567.13
2023-01-25T12:40:57.204Z,102554.53
2023-01-25T12:43:34.783Z,102548.75
2023-01-25T12:46:11.964Z,102484.03
2023-01-25T12:48:47.633Z,102539.44
2023-01-25T12:51:20.321Z,102527.75
2023-01-25T12:53:51.949Z,102501.06
2023-01-25T12:56:31.687Z,102511.00
2023-01-25T12:59:14.798Z,102501.53
2023-01-25T13:01:52.073Z,102498.03
2023-01-25T13:04:33.985Z,102490.88
2023-01-25T13:07:13.792Z,102489.25
2023-01-25T13:09:54.791Z,102481.31
2023-01-25T13:12:24.684Z,102464.41
2023-01-25T13:14:56.992Z,102479.50
2023-01-25T13:17:38.305Z,102480.03
2023-01-25T13:20:51.432Z,102472.22
2023-01-25T13:23:36.737Z,102446.06
2023-01-25T13:26:36.510Z,102469.47
2023-01-25T13:29:06.391Z,102443.38
2023-01-25T13:31:53.612Z,102452.59
2023-01-25T13:34:53.264Z,102440.59
2023-01-25T13:37:25.354Z,102425.50
2023-01-25T13:39:56.442Z,102445.16
2023-01-25T13:42:28.118Z,102442.78
2023-01-25T13:44:59.864Z,102414.34
2023-01-25T13:47:37.899Z,102423.28
2023-01-25T13:50:21.736Z,102427.41
2023-01-25T13:53:01.733Z,102424.66
2023-01-25T13:55:32.660Z,102431.69
2023-01-25T13:58:12.957Z,102428.63
2023-01-25T14:00:51.040Z,102421.31
2023-01-25T14:03:27.464Z,102419.31
2023-01-25T14:06:00.164Z,102389.59
2023-01-25T14:08:30.163Z,102413.38
2023-01-25T14:11:00.853Z,102388.50
2023-01-25T14:13:30.497Z,102411.06
2023-01-25T14:16:01.893Z,102415.34
2023-01-25T14:18:35.781Z,102416.25
2023-01-25T14:21:18.381Z,102412.56
2023-01-25T14:23:48.757Z,102411.06
2023-01-25T14:26:22.095Z,102406.78
2023-01-25T14:29:01.150Z,102406.69
2023-01-25T14:31:37.145Z,102418.75
2023-01-25T14:34:18.153Z,102426.19
2023-01-25T14:36:48.314Z,102418.00
2023-01-25T14:39:29.647Z,102404.78
2023-01-25T14:42:01.492Z,102405.81
2023-01-25T14:44:32.458Z,102410.84
2023-01-25T14:47:24.735Z,102421.88
2023-01-25T14:49:56.977Z,102415.06
2023-01-25T14:52:30.171Z,102414.56
2023-01-25T14:55:02.920Z,102420.97
2023-01-25T14:57:37.102Z,102375.56
2023-01-25T15:00:09.648Z,102403.38
2023-01-25T15:02:43.633Z,102400.69
2023-01-25T15:05:24.677Z,102392.63
2023-01-25T15:07:55.802Z,102393.78
2023-01-25T15:10:27.450Z,102364.22
2023-01-25T15:13:14.174Z,102358.97
2023-01-25T15:15:58.040Z,102368.50
2023-01-25T15:18:47.468Z,102378.53
2023-01-25T15:21:20.853Z,102380.31
2023-01-25T15:23:52.465Z,102384.25
2023-01-25T15:26:24.164Z,102372.13
2023-01-25T15:28:55.905Z,102371.75
2023-01-25T15:31:29.154Z,102383.34
2023-01-25T15:34:00.152Z,102349.81
2023-01-25T15:36:33.753Z,102371.53
2023-01-25T15:39:03.427Z,102339.41
2023-01-25T15:41:33.057Z,102367.25
2023-01-25T15:44:02.834Z,102367.84
2023-01-25T15:46:34.551Z,102338.47
2023-01-25T15:49:04.331Z,102365.25
2023-01-25T15:51:37.190Z,102360.09
2023-01-25T15:54:07.554Z,102342.38
2023-01-25T15:56:39.850Z,102343.25
2023-01-25T15:59:11.150Z,102337.09
2023-01-25T16:01:40.753Z,102313.06
2023-01-25T16:04:13.549Z,102350.69
2023-01-25T16:06:47.935Z,102344.41
2023-01-25T16:09:20.422Z,102342.88
2023-01-25T16:11:51.342Z,102334.84
2023-01-25T16:14:21.335Z,102327.03
2023-01-25T16:16:53.450Z,102324.13
2023-01-25T16:19:24.820Z,102331.81
2023-01-25T16:21:57.244Z,102340.84
2023-01-25T16:24:27.164Z,102333.53
2023-01-25T16:26:59.329Z,102335.97
2023-01-25T16:29:30.249Z,102330.78
2023-01-25T16:32:00.460Z,102324.38
2023-01-25T16:34:30.330Z,102319.97
2023-01-25T16:37:03.181Z,102324.28
2023-01-25T16:39:34.005Z,102324.00
2023-01-25T16:42:03.671Z,102328.50
2023-01-25T16:44:33.291Z,102315.84
2023-01-25T16:47:03.793Z,102313.38
2023-01-25T16:49:34.757Z,102322.81
2023-01-25T16:52:07.497Z,102321.63
2023-01-25T16:54:37.101Z,102336.19
2023-01-25T16:57:19.912Z,102289.44
2023-01-25T16:59:50.344Z,102317.13
2023-01-25T17:02:20.008Z,102292.28
2023-01-25T17:04:49.970Z,102298.41
2023-01-25T17:07:22.349Z,102306.78
2023-01-25T17:09:51.970Z,102309.91
2023-01-25T17:12:21.924Z,102304.53
2023-01-25T17:14:51.568Z,102305.66
2023-01-25T17:17:24.073Z,102285.94
2023-01-25T17:19:54.271Z,102276.53
2023-01-25T17:22:26.998Z,102277.13
2023-01-25T17:24:57.619Z,102287.53
2023-01-25T17:27:27.258Z,102283.66
2023-01-25T17:29:57.165Z,102288.41
2023-01-25T17:32:27.056Z,102290.59
2023-01-25T17:34:59.220Z,102278.41
2023-01-25T17:37:31.649Z,102284.47
2023-01-25T17:40:01.311Z,102277.41
2023-01-25T17:42:30.993Z,102261.16
2023-01-25T17:45:00.992Z,102285.44
2023-01-25T17:47:31.681Z,102292.19
2023-01-25T17:50:01.345Z,102302.28
2023-01-25T17:52:33.546Z,102270.53
2023-01-25T17:55:03.830Z,102303.97
2023-01-25T17:57:33.434Z,102285.06
2023-01-25T18:00:03.064Z,102302.00
2023-01-25T18:02:45.472Z,102287.97
2023-01-25T18:05:15.740Z,102283.09
2023-01-25T18:07:48.238Z,102282.97
2023-01-25T18:10:19.001Z,102275.97
2023-01-25T18:13:03.588Z,102262.88
2023-01-25T18:15:34.452Z,102279.72
2023-01-25T18:18:04.272Z,102275.53
2023-01-25T18:20:34.490Z,102248.19
2023-01-25T18:23:07.196Z,102249.59
2023-01-25T18:25:38.928Z,102232.50
2023-01-25T18:28:08.888Z,102243.84
2023-01-25T18:30:42.086Z,102249.63
2023-01-25T18:33:12.200Z,102253.06
2023-01-25T18:35:43.678Z,102247.28
2023-01-25T18:38:16.838Z,102239.59
2023-01-25T18:40:46.995Z,102249.63
2023-01-25T18:43:17.105Z,102238.81
2023-01-25T18:45:47.213Z,102201.59
2023-01-25T18:48:19.795Z,102172.81
2023-01-25T18:50:49.733Z,102220.94
2023-01-25T18:53:21.921Z,102222.47
2023-01-25T18:56:00.939Z,102213.53
2023-01-25T18:58:32.292Z,102218.34
2023-01-25T19:01:07.487Z,102213.25
2023-01-25T19:03:37.782Z,102213.25
2023-01-25T19:06:08.127Z,102201.19
2023-01-25T19:08:41.549Z,102184.34
2023-01-25T19:11:13.101Z,102191.13
2023-01-25T19:13:44.242Z,102193.94
2023-01-25T19:16:16.367Z,102200.19
2023-01-25T19:18:49.824Z,102173.03
2023-01-25T19:21:21.194Z,102198.16
2023-01-25T19:23:54.834Z,102187.63
2023-01-25T19:26:26.792Z,102172.28
2023-01-25T19:28:57.075Z,102188.91
2023-01-25T19:31:32.118Z,102182.00
2023-01-25T19:34:03.050Z,102177.88
2023-01-25T19:36:36.066Z,102165.81
2023-01-25T19:39:10.502Z,102164.78
2023-01-25T19:41:41.440Z,102138.78
2023-01-25T19:44:13.845Z,102164.94
2023-01-25T19:46:44.276Z,102160.81
2023-01-25T19:49:15.520Z,102129.25
2023-01-25T19:51:52.968Z,102160.94
2023-01-25T19:54:25.899Z,102151.00
2023-01-25T19:56:56.243Z,102157.28
2023-01-25T19:59:27.626Z,102157.78
2023-01-25T20:01:57.451Z,102131.41
2023-01-25T20:04:27.467Z,102134.66
2023-01-25T20:06:57.136Z,102142.19
2023-01-25T20:09:29.471Z,102123.47
2023-01-25T20:12:00.741Z,102139.94
2023-01-25T20:14:30.409Z,102147.94
2023-01-25T20:17:00.092Z,102125.81
2023-01-25T20:19:30.369Z,102151.69
2023-01-25T20:22:00.565Z,102127.03
2023-01-25T20:24:33.020Z,102128.47
2023-01-25T20:27:04.363Z,102110.63
2023-01-25T20:29:34.146Z,102078.72
2023-01-25T20:32:05.715Z,102087.91
2023-01-25T20:34:35.525Z,102143.88
2023-01-25T20:37:07.615Z,102126.91
2023-01-25T20:39:39.899Z,102138.56
2023-01-25T20:42:09.663Z,102126.75
2023-01-25T20:44:39.347Z,102127.88
2023-01-25T20:47:09.051Z,102122.13
2023-01-25T20:49:39.044Z,102116.72
2023-01-25T20:52:12.974Z,102089.19
2023-01-25T20:54:45.507Z,102103.97
2023-01-25T20:57:15.516Z,102078.13
2023-01-25T20:59:45.719Z,102115.81
2023-01-25T21:02:15.851Z,102075.31
2023-01-25T21:04:45.820Z,102108.56
2023-01-25T21:07:15.883Z,102111.47
2023-01-25T21:09:48.138Z,102092.88
2023-01-25T21:12:17.828Z,102085.22
2023-01-25T21:14:47.461Z,102117.78
2023-01-25T21:17:17.151Z,102113.28
2023-01-25T21:19:46.786Z,102097.47
2023-01-25T21:22:16.483Z,102106.53
2023-01-25T21:24:48.728Z,102098.94
2023-01-25T21:27:18.423Z,102111.78
2023-01-25T21:29:48.083Z,102094.19
2023-01-25T21:32:17.737Z,102108.28
2023-01-25T21:34:48.584Z,102079.16
2023-01-25T21:37:18.250Z,102076.16
2023-01-25T21:39:50.671Z,102096.03
2023-01-25T21:42:20.391Z,102065.38
2023-01-25T21:45:02.517Z,102087.84
2023-01-25T21:47:32.485Z,102098.25
2023-01-25T21:50:14.611Z,102073.34
2023-01-25T21:52:44.255Z,102097.47
2023-01-25T21:55:16.751Z,102101.25
2023-01-25T21:57:49.067Z,102093.69
2023-01-25T22:00:20.588Z,102086.00
2023-01-25T22:02:52.993Z,102091.16
2023-01-25T22:05:22.723Z,102109.47
2023-01-25T22:07:52.388Z,102101.41
2023-01-25T22:10:26.341Z,102095.13
2023-01-25T22:12:56.009Z,102101.50
2023-01-25T22:15:25.686Z,102098.88
2023-01-25T22:17:55.361Z,102090.81
2023-01-25T22:20:24.994Z,102089.16
2023-01-25T22:22:54.666Z,102094.81
2023-01-25T22:25:26.892Z,102089.28
2023-01-25T22:28:02.220Z,102097.81
2023-01-25T22:30:31.870Z,102085.41
2023-01-25T22:33:01.537Z,102080.78
2023-01-25T22:35:31.158Z,102078.16
2023-01-25T22:38:01.306Z,102054.53
2023-01-25T22:40:33.537Z,102072.75
2023-01-25T22:43:03.189Z,102066.91
2023-01-25T22:45:32.832Z,102045.69
2023-01-25T22:48:02.443Z,102048.13
2023-01-25T22:50:32.126Z,102039.75
2023-01-25T22:53:01.739Z,102007.84
2023-01-25T22:55:34.988Z,101954.09
2023-01-25T22:58:04.686Z,102019.13
2023-01-25T23:00:34.349Z,102031.28
2023-01-25T23:03:03.992Z,102026.88
2023-01-25T23:05:33.889Z,102010.88
2023-01-25T23:08:03.521Z,102004.97
2023-01-25T23:10:35.728Z,101985.88
2023-01-25T23:13:05.361Z,101974.50
2023-01-25T23:15:35.123Z,101994.06
2023-01-25T23:18:17.283Z,101962.69
2023-01-25T23:20:47.169Z,101960.81
2023-01-25T23:23:16.801Z,101977.13
2023-01-25T23:25:49.389Z,101987.28
2023-01-25T23:28:19.002Z,101989.25
2023-01-25T23:30:48.750Z,101985.72
2023-01-25T23:33:18.366Z,101984.44
2023-01-25T23:35:47.983Z,101959.13
2023-01-25T23:38:17.662Z,101969.94
2023-01-25T23:40:49.873Z,101961.41
2023-01-25T23:43:19.477Z,101960.41
2023-01-25T23:45:49.095Z,101959.91
2023-01-25T23:48:18.685Z,101958.44
2023-01-25T23:50:48.332Z,101948.75
2023-01-25T23:53:17.994Z,101968.69
2023-01-25T23:55:56.972Z,101971.72
2023-01-25T23:58:27.645Z,101973.72
